Time;durP1;ratioP1;P1;durP2;ratioP2;P2;SDS_P1;SDS_P2;PMS_P1;PMS_P2;Temp;Humidity;BMP_temperature;BMP_pressure;BME280_temperature;BME280_humidity;BME280_pressure;Samples;Min_cycle;Max_cycle;Signal;HPM_P1;HPM_P2
2022/06/03 00:01:51;;;;;;;4.68;3.20;;;;;;;20.01;61.42;99330.41;5092457;28;20070;-70
2022/06/03 00:04:27;;;;;;;9.73;3.47;;;;;;;20.01;61.58;99344.53;5047803;28;20044;-74
2022/06/03 00:07:04;;;;;;;7.07;4.00;;;;;;;19.98;61.68;99355.41;5092500;28;20123;-76
2022/06/03 00:09:52;;;;;;;8.38;4.07;;;;;;;20.00;61.73;99340.88;5109913;28;20138;-70
2022/06/03 00:12:38;;;;;;;6.68;4.22;;;;;;;19.98;61.98;99345.34;5115430;28;20123;-74
2022/06/03 00:15:49;;;;;;;6.90;4.03;;;;;;;19.96;61.91;99343.69;5116687;28;20069;-70
2022/06/03 00:18:53;;;;;;;9.73;3.92;;;;;;;19.92;61.89;99342.06;5053629;28;20107;-71
2022/06/03 00:21:58;;;;;;;6.03;3.80;;;;;;;19.90;62.02;99345.28;5053655;28;20055;-75
2022/06/03 00:24:34;;;;;;;48.55;20.20;;;;;;;19.90;62.07;99342.47;5053731;28;20068;-67
2022/06/03 00:27:27;;;;;;;10.07;4.53;;;;;;;19.85;62.32;99345.72;5053466;28;20060;-73
2022/06/03 00:30:26;;;;;;;7.78;3.85;;;;;;;19.81;62.46;99352.56;5050578;28;20053;-68
2022/06/03 00:33:17;;;;;;;10.70;4.03;;;;;;;19.74;62.62;99352.50;5033365;28;20052;-72
2022/06/03 00:36:09;;;;;;;8.05;4.15;;;;;;;19.73;63.06;99346.06;5033413;28;20083;-70
2022/06/03 00:38:52;;;;;;;7.70;3.70;;;;;;;19.73;62.92;99354.53;5033279;28;20548;-73
2022/06/03 00:41:34;;;;;;;11.27;4.53;;;;;;;19.75;62.82;99359.78;5045583;28;20053;-71
2022/06/03 00:44:10;;;;;;;12.25;4.43;;;;;;;19.78;62.74;99356.97;5053131;28;20447;-75
2022/06/03 00:46:43;;;;;;;11.40;4.72;;;;;;;19.73;63.05;99357.38;5053745;28;20135;-72
2022/06/03 00:49:35;;;;;;;10.35;4.93;;;;;;;19.71;63.21;99359.75;5069059;28;20075;-71
2022/06/03 00:52:04;;;;;;;14.48;4.85;;;;;;;19.65;63.22;99369.81;5095387;28;20052;-74
2022/06/03 00:55:06;;;;;;;6.93;4.32;;;;;;;19.58;63.50;99361.34;5095137;28;20524;-71
2022/06/03 00:57:42;;;;;;;13.65;5.22;;;;;;;19.58;63.54;99374.63;5052706;28;20060;-71
2022/06/03 01:00:41;;;;;;;10.98;5.05;;;;;;;19.54;63.76;99380.25;5095473;28;20070;-73
2022/06/03 01:03:18;;;;;;;16.70;5.80;;;;;;;19.50;63.91;99379.44;5052789;28;20082;-73
2022/06/03 01:06:08;;;;;;;6.43;4.95;;;;;;;19.40;64.46;99368.91;5095253;28;20052;-73
2022/06/03 01:09:00;;;;;;;13.20;5.70;;;;;;;19.37;64.69;99366.88;5096392;28;20506;-74
2022/06/03 01:11:47;;;;;;;13.00;6.68;;;;;;;19.32;64.82;99372.91;5115683;28;20055;-73
2022/06/03 01:14:26;;;;;;;12.40;6.63;;;;;;;19.26;65.23;99360.34;5115207;28;20044;-73
2022/06/03 01:17:09;;;;;;;14.52;7.45;;;;;;;19.22;65.37;99362.31;5115632;28;20055;-76
2022/06/03 01:20:29;;;;;;;14.32;7.53;;;;;;;19.15;65.60;99362.28;5107068;28;20127;-75
2022/06/03 01:23:01;;;;;;;15.73;7.28;;;;;;;19.07;65.98;99359.81;5094678;28;20513;-74
2022/06/03 01:25:47;;;;;;;12.27;7.10;;;;;;;19.05;66.33;99357.41;5094668;28;20052;-74
2022/06/03 01:28:32;;;;;;;14.32;7.25;;;;;;;18.98;66.60;99348.09;5095070;28;20079;-71
2022/06/03 01:31:24;;;;;;;12.50;7.40;;;;;;;18.90;66.82;99338.78;5109350;28;20048;-73
2022/06/03 01:34:00;;;;;;;12.77;7.15;;;;;;;18.89;67.11;99347.63;5114948;28;20096;-72
2022/06/03 01:36:44;;;;;;;10.93;6.75;;;;;;;18.86;67.20;99351.22;5115261;28;20135;-73
2022/06/03 01:39:32;;;;;;;13.48;7.32;;;;;;;18.79;67.48;99326.63;5115316;28;20062;-73
2022/06/03 01:42:19;;;;;;;12.77;6.60;;;;;;;18.75;67.56;99328.59;5096802;28;20058;-70
2022/06/03 01:45:14;;;;;;;13.00;6.82;;;;;;;18.73;67.85;99328.19;5076203;28;20051;-74
2022/06/03 01:48:11;;;;;;;9.52;7.10;;;;;;;18.67;68.02;99338.19;5094508;28;20143;-73
2022/06/03 01:51:11;;;;;;;14.18;8.10;;;;;;;18.65;68.28;99342.63;5094505;28;20044;-73
2022/06/03 01:54:09;;;;;;;14.40;7.07;;;;;;;18.59;68.20;99344.97;5094352;28;20095;-72
2022/06/03 01:56:55;;;;;;;14.13;6.80;;;;;;;18.60;68.38;99349.44;5094479;28;20047;-70
2022/06/03 01:59:49;;;;;;;9.70;6.72;;;;;;;18.66;68.16;99339.41;5093973;28;20067;-75
2022/06/03 02:02:31;;;;;;;11.50;7.53;;;;;;;18.66;68.20;99339.41;5094214;28;20085;-76
2022/06/03 02:05:26;;;;;;;14.07;7.20;;;;;;;18.64;68.21;99336.16;5094117;28;20044;-74
2022/06/03 02:08:29;;;;;;;11.30;6.93;;;;;;;18.61;68.40;99328.50;5094578;28;20080;-73
2022/06/03 02:11:08;;;;;;;9.00;6.22;;;;;;;18.61;68.46;99336.13;5011977;28;20465;-75
2022/06/03 02:14:21;;;;;;;9.60;6.90;;;;;;;18.58;68.22;99336.91;5085389;28;20055;-74
2022/06/03 02:16:54;;;;;;;14.60;7.15;;;;;;;18.54;68.53;99328.44;5094395;28;20421;-73
2022/06/03 02:19:33;;;;;;;10.32;6.68;;;;;;;18.58;68.35;99323.66;5093925;28;20060;-73
2022/06/03 02:22:19;;;;;;;15.43;6.93;;;;;;;18.59;68.34;99327.28;5094294;28;20052;-73
2022/06/03 02:25:15;;;;;;;15.85;7.35;;;;;;;18.57;68.51;99330.50;5093811;28;20134;-75
2022/06/03 02:28:09;;;;;;;18.65;7.10;;;;;;;18.58;68.23;99337.72;5094675;28;20047;-75
2022/06/03 02:30:48;;;;;;;11.32;6.57;;;;;;;18.61;68.39;99314.41;5103898;28;20052;-77
2022/06/03 02:33:40;;;;;;;13.32;6.78;;;;;;;18.60;68.07;99324.06;5113833;28;20512;-74
2022/06/03 02:36:58;;;;;;;10.77;6.43;;;;;;;18.64;68.17;99316.44;5114356;28;20047;-72
2022/06/03 02:39:52;;;;;;;12.90;6.65;;;;;;;18.71;68.00;99315.69;5070603;28;20063;-73
2022/06/03 02:42:37;;;;;;;9.90;6.17;;;;;;;18.75;67.89;99313.69;5093652;28;20059;-73
2022/06/03 02:45:48;;;;;;;11.18;6.40;;;;;;;18.83;67.43;99309.72;5093390;28;20082;-77
2022/06/03 02:48:36;;;;;;;11.32;6.13;;;;;;;18.92;67.43;99319.44;5093496;28;20056;-72
2022/06/03 02:51:20;;;;;;;13.35;7.43;;;;;;;18.95;67.27;99313.00;5093509;28;20040;-77
2022/06/03 02:54:14;;;;;;;9.15;5.70;;;;;;;19.00;67.24;99309.84;5092847;28;20054;-72
2022/06/03 02:56:55;;;;;;;24.77;6.13;;;;;;;19.06;67.13;99313.88;5093629;28;20062;-73
2022/06/03 02:59:45;;;;;;;8.27;4.95;;;;;;;19.14;66.89;99309.91;5093271;28;20052;-73
2022/06/03 03:02:36;;;;;;;9.32;5.40;;;;;;;19.24;66.45;99309.16;5093365;28;20535;-71
2022/06/03 03:05:26;;;;;;;10.75;5.03;;;;;;;19.29;66.27;99317.28;5093066;28;20067;-71
2022/06/03 03:08:07;;;;;;;8.55;5.70;;;;;;;19.33;66.43;99312.44;5093097;28;20614;-71
2022/06/03 03:11:05;;;;;;;17.10;5.60;;;;;;;19.34;66.19;99319.72;5102781;28;20048;-75
2022/06/03 03:14:01;;;;;;;7.10;4.93;;;;;;;19.35;66.29;99309.22;5113361;28;20043;-70
2022/06/03 03:16:49;;;;;;;9.70;5.32;;;;;;;19.35;66.44;99310.03;5114185;28;20066;-71
2022/06/03 03:19:40;;;;;;;16.45;6.15;;;;;;;19.41;66.19;99318.91;5112855;28;20051;-70
2022/06/03 03:22:31;;;;;;;10.18;5.57;;;;;;;19.47;65.77;99309.69;5113525;28;20051;-74
2022/06/03 03:25:01;;;;;;;8.05;5.30;;;;;;;19.50;65.93;99308.91;5113208;28;20800;-72
2022/06/03 03:27:59;;;;;;;13.45;4.93;;;;;;;19.56;65.95;99312.94;5112903;28;20101;-71
2022/06/03 03:30:34;;;;;;;7.90;4.65;;;;;;;19.65;65.53;99318.22;5101278;28;20068;-70
2022/06/03 03:33:39;;;;;;;10.60;4.93;;;;;;;19.74;65.19;99310.97;5092614;28;20085;-69
2022/06/03 03:36:43;;;;;;;13.13;4.75;;;;;;;19.82;65.01;99311.81;5093200;28;20056;-68
2022/06/03 03:39:10;;;;;;;8.38;4.97;;;;;;;19.96;64.75;99315.47;5092328;28;20515;-68
2022/06/03 03:42:08;;;;;;;12.10;5.15;;;;;;;20.11;64.19;99309.84;5092603;28;20048;-73
2022/06/03 03:45:18;;;;;;;13.07;4.35;;;;;;;20.27;63.87;99310.28;5092400;28;20059;-74
2022/06/03 03:47:57;;;;;;;5.80;4.40;;;;;;;20.34;63.30;99307.47;5096999;28;20594;-72
2022/06/03 03:50:42;;;;;;;13.48;4.82;;;;;;;20.36;63.50;99291.72;5096821;28;20090;-71
2022/06/03 03:53:29;;;;;;;9.80;4.28;;;;;;;20.47;63.09;99298.19;5096742;28;20047;-71
2022/06/03 03:56:14;;;;;;;6.53;4.50;;;;;;;20.48;63.14;99304.63;5096417;28;20561;-74
2022/06/03 03:59:42;;;;;;;11.75;5.10;;;;;;;20.43;63.01;99283.25;5078456;28;20139;-69
2022/06/03 04:02:33;;;;;;;8.13;4.47;;;;;;;20.51;63.15;99289.69;5096705;28;20055;-70
2022/06/03 04:05:25;;;;;;;5.95;4.40;;;;;;;20.56;62.97;99289.28;5096657;28;20511;-74
2022/06/03 04:08:24;;;;;;;11.65;4.60;;;;;;;20.62;62.95;99273.53;5078980;28;20075;-74
2022/06/03 04:11:19;;;;;;;8.65;4.47;;;;;;;20.73;62.77;99254.53;5091821;28;20551;-70
2022/06/03 04:13:49;;;;;;;6.00;4.07;;;;;;;20.85;62.63;99256.94;5116609;28;20043;-70
2022/06/03 04:16:22;;;;;;;;;;;;;;;20.90;62.32;99260.16;5117001;28;20053;-70
2022/06/03 04:19:10;;;;;;;8.93;4.75;;;;;;;21.17;61.38;99266.16;5116488;28;20294;-70
2022/06/03 04:22:04;;;;;;;14.48;5.15;;;;;;;21.36;60.89;99265.69;5116936;28;20055;-71
2022/06/03 04:24:58;;;;;;;14.45;4.68;;;;;;;21.52;60.47;99268.81;5116180;28;20046;-69
2022/06/03 04:27:47;;;;;;;13.40;4.85;;;;;;;21.51;60.33;99264.38;5116396;28;20062;-70
2022/06/03 04:30:23;;;;;;;7.90;4.43;;;;;;;21.61;60.32;99266.34;5116369;28;20052;-70
2022/06/03 04:33:11;;;;;;;11.60;4.80;;;;;;;21.69;59.93;99256.59;5116498;28;20066;-75
2022/06/03 04:36:12;;;;;;;8.18;4.05;;;;;;;21.98;59.27;99252.41;5116367;28;20051;-71
2022/06/03 04:38:41;;;;;;;7.97;4.30;;;;;;;22.32;58.63;99249.72;5116237;28;20482;-75
2022/06/03 04:41:30;;;;;;;18.85;5.35;;;;;;;22.61;57.64;99245.41;5105007;28;20151;-74
2022/06/03 04:44:27;;;;;;;8.75;4.35;;;;;;;22.62;57.54;99241.34;5095658;28;20146;-70
2022/06/03 04:47:28;;;;;;;6.82;4.55;;;;;;;22.57;57.60;99222.78;5096603;28;20048;-70
2022/06/03 04:50:36;;;;;;;7.32;4.82;;;;;;;22.67;57.34;99204.81;5095478;28;20054;-70
2022/06/03 04:53:15;;;;;;;9.93;4.75;;;;;;;22.77;56.93;99203.13;5095890;28;20040;-71
2022/06/03 04:56:00;;;;;;;14.98;4.50;;;;;;;23.05;56.60;99203.56;5095552;28;20134;-70
2022/06/03 04:59:04;;;;;;;10.30;4.97;;;;;;;23.29;55.68;99202.47;5076311;28;20055;-76
2022/06/03 05:01:44;;;;;;;13.57;5.03;;;;;;;23.24;55.89;99194.44;5095279;28;20446;-71
2022/06/03 05:04:51;;;;;;;10.35;5.35;;;;;;;23.15;55.74;99188.44;5110077;28;20057;-70
2022/06/03 05:07:45;;;;;;;9.98;4.85;;;;;;;23.30;55.69;99184.22;5116038;28;20058;-71
2022/06/03 05:10:43;;;;;;;8.32;4.72;;;;;;;23.56;54.85;99196.03;5095371;28;20467;-71
2022/06/03 05:13:43;;;;;;;8.90;4.80;;;;;;;23.73;54.25;99206.31;5095275;28;20451;-75
2022/06/03 05:16:31;;;;;;;7.47;4.50;;;;;;;23.71;54.49;99203.13;5061094;28;20062;-71
2022/06/03 05:18:58;;;;;;;7.03;4.47;;;;;;;23.88;54.17;99193.50;5103712;28;20525;-70
2022/06/03 05:21:31;;;;;;;9.15;4.97;;;;;;;24.08;53.57;99198.09;5096942;28;20101;-74
2022/06/03 05:24:38;;;;;;;10.30;4.90;;;;;;;24.55;52.49;99193.19;5114902;28;20383;-71
2022/06/03 05:27:31;;;;;;;13.70;4.30;;;;;;;25.08;51.83;99195.81;5115954;28;20430;-69
2022/06/03 05:30:36;;;;;;;7.80;4.07;;;;;;;25.45;50.39;99206.84;5115083;28;20043;-70
2022/06/03 05:33:26;;;;;;;8.38;4.30;;;;;;;25.69;49.76;99210.41;5115346;28;20051;-73
2022/06/03 05:36:20;;;;;;;10.60;4.53;;;;;;;25.39;50.24;99222.84;5114363;28;20055;-72
2022/06/03 05:39:06;;;;;;;13.50;4.50;;;;;;;24.83;51.33;99215.44;5114802;28;20143;-71
2022/06/03 05:45:01;;;;;;;10.82;5.40;;;;;;;24.78;51.29;99245.19;5094333;28;20040;-70
2022/06/03 05:47:35;;;;;;;7.93;4.80;;;;;;;24.90;51.37;99249.47;5095471;28;20052;-75
2022/06/03 05:50:12;;;;;;;11.93;5.88;;;;;;;24.67;51.23;99252.31;5094786;28;20052;-70
2022/06/03 05:52:56;;;;;;;9.27;5.60;;;;;;;24.67;51.19;99258.00;5094540;28;20102;-72
2022/06/03 05:55:57;;;;;;;6.82;5.10;;;;;;;24.50;51.77;99264.78;5094413;28;20521;-76
2022/06/03 05:58:55;;;;;;;9.60;6.18;;;;;;;24.07;52.41;99258.97;5094357;28;20048;-72
2022/06/03 06:01:41;;;;;;;14.70;6.70;;;;;;;23.54;53.60;99258.13;5094402;28;20503;-71
2022/06/03 06:04:24;;;;;;;11.95;6.70;;;;;;;23.16;54.91;99251.69;5094224;28;20123;-75
2022/06/03 06:07:10;;;;;;;14.40;7.45;;;;;;;22.99;55.47;99259.19;5075469;28;20101;-71
2022/06/03 06:10:06;;;;;;;14.13;7.07;;;;;;;22.87;55.82;99245.53;5093088;28;20161;-71
2022/06/03 06:13:15;;;;;;;18.05;7.38;;;;;;;22.69;56.23;99242.09;5063243;28;20109;-70
2022/06/03 06:15:56;;;;;;;11.07;7.20;;;;;;;22.54;56.77;99232.13;5093980;28;20039;-75
2022/06/03 06:19:03;;;;;;;15.80;7.60;;;;;;;22.62;56.69;99222.28;5093982;28;20048;-75
2022/06/03 06:21:52;;;;;;;16.02;7.55;;;;;;;22.84;56.25;99229.38;5013590;28;20052;-74
2022/06/03 06:24:34;;;;;;;10.80;7.38;;;;;;;22.66;56.73;99220.25;5093378;28;20391;-71
2022/06/03 06:27:33;;;;;;;10.52;7.47;;;;;;;22.45;57.56;99213.94;5093848;28;20135;-77
2022/06/03 06:30:26;;;;;;;15.27;8.13;;;;;;;22.50;57.52;99219.97;5093613;28;20052;-70
2022/06/03 06:33:14;;;;;;;16.25;7.90;;;;;;;22.56;57.26;99221.13;5093822;28;20048;-75
2022/06/03 06:35:58;;;;;;;18.80;7.50;;;;;;;22.43;57.56;99219.22;5093314;28;20130;-69
2022/06/03 06:38:44;;;;;;;11.93;8.15;;;;;;;22.27;58.02;99235.97;5093090;28;20507;-73
2022/06/03 06:41:26;;;;;;;13.35;8.20;;;;;;;22.16;58.38;99229.59;5093503;28;20052;-70
2022/06/03 06:44:13;;;;;;;19.92;7.85;;;;;;;22.08;58.71;99223.16;5093453;28;20534;-75
2022/06/03 06:47:02;;;;;;;20.45;7.75;;;;;;;21.80;59.71;99240.38;5093762;28;20143;-73
2022/06/03 06:49:35;;;;;;;17.40;8.63;;;;;;;21.56;61.09;99252.66;5093275;28;20039;-76
2022/06/03 06:52:09;;;;;;;12.30;7.57;;;;;;;21.28;62.61;99283.91;5093710;28;20059;-76
2022/06/03 06:54:51;;;;;;;17.02;6.00;;;;;;;21.00;63.73;99276.34;5093566;28;20054;-75
2022/06/03 06:57:33;;;;;;;17.75;6.00;;;;;;;20.31;66.07;99283.66;5101240;28;20499;-73
2022/06/03 07:00:07;;;;;;;15.77;4.80;;;;;;;20.02;67.00;99291.25;5113547;28;20054;-77
2022/06/03 07:02:46;;;;;;;8.20;4.45;;;;;;;19.91;67.29;99293.28;5113749;28;20479;-73
2022/06/03 07:05:21;;;;;;;5.72;3.75;;;;;;;19.86;67.55;99296.50;5113379;28;20043;-73
2022/06/03 07:07:59;;;;;;;6.13;3.50;;;;;;;19.66;67.98;99288.78;5113506;28;20048;-76
2022/06/03 07:10:36;;;;;;;4.75;2.95;;;;;;;19.51;68.29;99289.97;5113406;28;20051;-76
2022/06/03 07:13:12;;;;;;;4.47;2.85;;;;;;;19.51;68.08;99287.13;5113176;28;20047;-73
2022/06/03 07:15:54;;;;;;;6.95;3.63;;;;;;;19.57;67.92;99285.53;5113245;28;20054;-72
2022/06/03 07:21:57;;;;;;;8.57;3.83;;;;;;;19.57;67.70;99260.16;5092712;28;20563;-71
2022/06/03 07:24:36;;;;;;;8.15;4.03;;;;;;;19.52;67.63;99243.59;5112350;28;20040;-70
2022/06/03 07:27:12;;;;;;;7.70;3.33;;;;;;;19.56;67.94;99250.88;5113470;28;20047;-71
2022/06/03 07:30:02;;;;;;;6.30;3.17;;;;;;;19.67;67.61;99243.25;5112962;28;20055;-71
2022/06/03 07:32:38;;;;;;;5.45;3.22;;;;;;;19.85;67.13;99243.25;5112770;28;20383;-70
2022/06/03 07:35:31;;;;;;;8.52;3.78;;;;;;;20.11;66.73;99233.59;5112869;28;20138;-71
2022/06/03 07:38:15;;;;;;;7.88;3.53;;;;;;;20.50;65.75;99246.50;5102298;28;20083;-70
2022/06/03 07:41:11;;;;;;;8.20;3.33;;;;;;;20.85;65.03;99245.63;5108961;28;20097;-70
2022/06/03 07:43:47;;;;;;;8.00;4.13;;;;;;;21.05;64.51;99250.44;5092111;28;20052;-70
2022/06/03 07:46:21;;;;;;;7.03;3.63;;;;;;;21.55;63.52;99253.84;5092287;28;20075;-72
2022/06/03 07:48:48;;;;;;;11.48;3.78;;;;;;;21.96;62.27;99254.03;5092763;28;20040;-71
2022/06/03 07:51:15;;;;;;;43.63;16.70;;;;;;;22.12;61.76;99246.63;5092445;28;20139;-70
2022/06/03 07:53:59;;;;;;;7.47;4.72;;;;;;;22.24;61.47;99251.78;5092403;28;20142;-70
2022/06/03 07:56:31;;;;;;;6.55;4.25;;;;;;;22.19;61.37;99246.56;5093052;28;20054;-69
2022/06/03 07:59:03;;;;;;;8.88;4.85;;;;;;;22.22;61.25;99250.59;5092188;28;20159;-69
2022/06/03 08:01:35;;;;;;;6.40;4.65;;;;;;;22.28;61.03;99255.41;5092158;28;20115;-72
2022/06/03 08:04:05;;;;;;;9.75;4.40;;;;;;;22.54;60.67;99257.63;5092062;28;20069;-74
2022/06/03 08:12:11;;;;;;;9.70;5.70;;;;;;;22.44;60.94;99252.81;5094061;28;20521;-69
2022/06/03 08:14:38;;;;;;;10.80;5.50;;;;;;;22.36;61.35;99256.16;5112646;28;20047;-71
2022/06/03 08:17:08;;;;;;;15.70;6.53;;;;;;;22.26;61.42;99252.16;5112390;28;20047;-71
2022/06/03 08:19:37;;;;;;;7.00;4.75;;;;;;;22.02;61.68;99258.84;5112423;28;20060;-68
2022/06/03 08:22:08;;;;;;;8.63;4.97;;;;;;;21.94;62.08;99247.97;5092436;28;20040;-68
2022/06/03 08:24:40;;;;;;;10.73;5.65;;;;;;;21.74;62.51;99264.69;5092103;28;20043;-69
2022/06/03 08:27:20;;;;;;;5.88;4.38;;;;;;;21.58;62.49;99262.31;5092274;28;20044;-72
2022/06/03 08:30:00;;;;;;;8.73;5.00;;;;;;;21.72;61.89;99261.44;5098248;28;20091;-72
2022/06/03 08:32:39;;;;;;;7.20;4.43;;;;;;;22.12;60.60;99262.81;5114501;28;20051;-69
2022/06/03 08:35:20;;;;;;;6.75;4.30;;;;;;;22.65;59.31;99263.19;5116162;28;20076;-68
2022/06/03 08:37:56;;;;;;;8.02;4.30;;;;;;;23.07;58.39;99260.69;5116296;28;20524;-73
2022/06/03 08:40:32;;;;;;;8.75;5.78;;;;;;;23.46;57.51;99262.28;5110934;28;20052;-72
2022/06/03 08:43:32;;;;;;;7.90;4.90;;;;;;;23.46;56.67;99267.97;5095868;28;20052;-72
2022/06/03 08:46:07;;;;;;;10.43;4.22;;;;;;;22.97;58.02;99275.81;5087805;28;20102;-69
2022/06/03 08:48:39;;;;;;;8.38;4.55;;;;;;;22.32;58.81;99276.00;5095678;28;20052;-73
2022/06/03 08:51:22;;;;;;;6.88;4.13;;;;;;;22.08;59.57;99277.00;5095723;28;20047;-67
2022/06/03 08:54:25;;;;;;;8.30;4.88;;;;;;;22.17;59.61;99287.88;5078782;28;20044;-68
2022/06/03 08:56:57;;;;;;;5.93;4.20;;;;;;;22.87;58.12;99298.63;5095416;28;20135;-68
2022/06/03 08:59:35;;;;;;;8.68;4.57;;;;;;;24.86;52.42;99282.84;5095428;28;20406;-68
2022/06/03 09:02:13;;;;;;;7.57;4.68;;;;;;;25.52;51.03;99291.34;5099661;28;20055;-68
2022/06/03 09:04:50;;;;;;;8.50;4.43;;;;;;;25.12;51.39;99293.34;5115707;28;20609;-68
2022/06/03 09:07:36;;;;;;;6.55;4.38;;;;;;;24.41;52.44;99295.81;5115962;28;20062;-67
2022/06/03 09:10:17;;;;;;;8.18;4.65;;;;;;;23.66;54.28;99300.97;5115495;28;20142;-68
2022/06/03 09:12:54;;;;;;;7.40;4.93;;;;;;;23.02;55.45;99298.06;5115593;28;20510;-69
2022/06/03 09:15:25;;;;;;;5.97;4.57;;;;;;;22.53;56.71;99306.25;5115432;28;20052;-69
2022/06/03 09:18:11;;;;;;;10.98;4.97;;;;;;;21.91;57.93;99306.28;5097170;28;20105;-69
2022/06/03 09:20:58;;;;;;;12.45;4.82;;;;;;;21.66;58.71;99314.06;5115148;28;20062;-68
2022/06/03 09:23:27;;;;;;;7.38;4.90;;;;;;;21.49;59.04;99309.28;5115032;28;20110;-68
2022/06/03 09:25:57;;;;;;;9.07;4.63;;;;;;;21.33;59.61;99311.78;5115053;28;20048;-68
2022/06/03 09:28:26;;;;;;;7.63;4.80;;;;;;;21.26;60.00;99311.81;5115492;28;20052;-73
2022/06/03 09:30:55;;;;;;;8.73;5.20;;;;;;;21.23;60.13;99302.09;5099735;28;20044;-70
2022/06/03 09:33:24;;;;;;;10.55;5.65;;;;;;;21.18;60.62;99307.38;5094692;28;20048;-72
2022/06/03 09:35:54;;;;;;;9.27;6.10;;;;;;;21.07;60.77;99310.25;5094537;28;20048;-70
2022/06/03 09:38:23;;;;;;;;;;;;;;;20.85;61.15;99324.81;5095329;28;20557;-70
2022/06/03 09:40:55;;;;;;;10.80;5.93;;;;;;;20.73;61.77;99322.41;5094828;28;19923;-70
2022/06/03 09:43:31;;;;;;;10.20;5.85;;;;;;;20.68;62.12;99328.44;5094614;28;20134;-71
2022/06/03 09:45:59;;;;;;;7.50;5.80;;;;;;;20.59;62.37;99328.06;5094478;28;20052;-69
2022/06/03 09:48:34;;;;;;;12.80;6.00;;;;;;;20.52;62.45;99333.72;5094386;28;20494;-69
2022/06/03 09:51:16;;;;;;;8.73;6.20;;;;;;;20.61;62.23;99320.00;5094478;28;20501;-72
2022/06/03 09:53:43;;;;;;;7.43;5.13;;;;;;;20.74;62.08;99329.66;5094715;28;20056;-74
2022/06/03 09:56:20;;;;;;;7.57;5.55;;;;;;;20.82;61.53;99331.28;5094437;28;20126;-71
2022/06/03 09:58:52;;;;;;;8.10;5.25;;;;;;;20.88;61.02;99340.97;5094181;28;20391;-70
2022/06/03 10:01:19;;;;;;;7.60;4.65;;;;;;;20.91;59.67;99337.31;5094314;28;20424;-71
2022/06/03 10:03:58;;;;;;;12.60;4.78;;;;;;;21.04;58.84;99341.34;5094495;28;20067;-74
2022/06/03 10:17:38;;;;;;;6.38;4.40;;;;;;;21.03;58.93;99320.78;5114456;28;20047;-75
2022/06/03 10:20:08;;;;;;;8.32;4.82;;;;;;;21.09;58.62;99318.31;5098633;28;20048;-70
2022/06/03 10:22:35;;;;;;;;;;;;;;;21.13;58.74;99322.75;5094324;28;20056;-70
2022/06/03 10:25:03;;;;;;;8.75;4.82;;;;;;;21.33;58.31;99311.78;5093616;28;19946;-71
2022/06/03 10:27:30;;;;;;;8.80;5.20;;;;;;;21.30;58.69;99315.44;5093775;28;20521;-75
2022/06/03 10:29:59;;;;;;;8.73;5.32;;;;;;;21.16;59.11;99312.63;5098989;28;20051;-70
2022/06/03 10:32:26;;;;;;;11.03;5.80;;;;;;;20.94;59.68;99309.03;5115056;28;20044;-75
2022/06/03 10:35:13;;;;;;;6.45;5.15;;;;;;;20.66;60.15;99319.59;5114055;28;20135;-70
2022/06/03 10:37:49;;;;;;;7.28;4.22;;;;;;;20.58;59.78;99326.44;5113951;28;20044;-71
2022/06/03 10:40:17;;;;;;;5.43;3.90;;;;;;;20.45;60.26;99339.34;5109604;28;20052;-71
2022/06/03 10:42:49;;;;;;;7.32;3.78;;;;;;;20.43;59.43;99327.66;5093586;28;20063;-71
2022/06/03 10:45:16;;;;;;;6.22;4.10;;;;;;;20.62;58.67;99335.72;5093531;28;20047;-71
2022/06/03 10:47:44;;;;;;;4.90;3.83;;;;;;;21.03;57.26;99342.59;5093428;28;20052;-72
2022/06/03 10:50:28;;;;;;;5.18;3.85;;;;;;;;;;5093211;28;20071;-70
2022/06/03 11:01:51;;;;;;;8.02;3.80;;;;;;;21.68;54.94;99379.59;5093497;28;20506;-72
2022/06/03 11:04:39;;;;;;;7.93;3.80;;;;;;;21.57;55.22;99378.81;5094067;28;20147;-75
2022/06/03 11:07:32;;;;;;;4.97;3.70;;;;;;;21.51;55.36;99391.78;5093625;28;20044;-71
2022/06/03 11:10:03;;;;;;;5.90;3.08;;;;;;;21.41;55.10;99386.97;5092578;28;20079;-72
2022/06/03 11:12:44;;;;;;;7.20;3.85;;;;;;;21.07;55.90;99405.59;5093866;28;20130;-74
2022/06/03 11:15:44;;;;;;;6.50;3.03;;;;;;;20.58;56.30;99412.06;5110970;28;20039;-69
2022/06/03 11:18:29;;;;;;;5.00;3.22;;;;;;;20.45;56.70;99415.66;5052914;28;20090;-69
2022/06/03 11:21:00;;;;;;;6.47;3.50;;;;;;;20.53;55.89;99431.41;5111068;28;20509;-66
2022/06/03 11:23:27;;;;;;;5.13;3.60;;;;;;;20.61;55.47;99433.06;5094900;28;20054;-73
2022/06/03 11:26:00;;;;;;;5.50;3.22;;;;;;;20.53;55.17;99426.59;5104527;28;20536;-72
2022/06/03 11:28:34;;;;;;;10.05;3.90;;;;;;;20.28;55.92;99436.22;5098360;28;20568;-71
2022/06/03 11:31:18;;;;;;;10.48;4.90;;;;;;;20.09;56.76;99456.28;5097762;28;20041;-69
2022/06/03 11:33:48;;;;;;;9.00;4.38;;;;;;;19.79;57.58;99470.69;5102010;28;20055;-69
2022/06/03 11:36:21;;;;;;;;;;;;;;;19.50;58.33;99464.09;5098720;28;20036;-70
2022/06/03 11:38:55;;;;;;;7.13;4.47;;;;;;;19.58;57.74;99470.59;5106376;28;19930;-69
2022/06/03 11:41:32;;;;;;;12.52;5.35;;;;;;;19.73;57.38;99477.94;5106358;28;20093;-67
2022/06/03 11:44:37;;;;;;;8.43;4.22;;;;;;;19.86;56.42;99493.31;5092202;28;20140;-66
2022/06/03 11:47:16;;;;;;;7.70;3.70;;;;;;;19.90;55.69;99494.94;5067641;28;20055;-69
2022/06/03 11:49:45;;;;;;;4.93;3.75;;;;;;;19.85;55.25;99501.00;5096003;23;20151;-69
2022/06/03 11:52:12;;;;;;;4.50;3.55;;;;;;;19.86;54.69;99488.47;5070750;28;20041;-68
2022/06/03 11:54:40;;;;;;;9.50;3.33;;;;;;;19.74;54.61;99494.47;5073036;28;20859;-71
2022/06/03 11:57:07;;;;;;;3.78;2.80;;;;;;;19.59;54.89;99501.22;5072071;28;20050;-70
2022/06/03 11:59:43;;;;;;;7.53;3.25;;;;;;;19.51;55.09;99502.38;5072854;28;20054;-69
2022/06/03 12:02:12;;;;;;;5.82;3.40;;;;;;;19.47;54.97;99498.72;5070610;28;20048;-66
2022/06/03 12:05:18;;;;;;;5.93;3.50;;;;;;;19.39;55.53;99491.41;5070756;28;20080;-66
2022/06/03 12:08:07;;;;;;;8.68;3.28;;;;;;;19.12;56.14;99498.44;5064700;28;20072;-67
2022/06/03 12:10:56;;;;;;;5.88;2.90;;;;;;;18.93;56.38;99507.13;5086047;28;20060;-68
2022/06/03 12:13:27;;;;;;;3.42;2.53;;;;;;;18.96;55.99;99512.00;5089323;28;20063;-70
2022/06/03 12:15:54;;;;;;;5.10;2.85;;;;;;;19.15;54.95;99505.28;5073816;28;20127;-73
2022/06/03 12:18:39;;;;;;;6.50;2.83;;;;;;;19.20;55.07;99514.22;5078472;28;20052;-69
2022/06/03 12:21:14;;;;;;;4.70;2.75;;;;;;;18.93;55.48;99506.31;5060836;28;20063;-69
2022/06/03 12:23:47;;;;;;;8.18;2.80;;;;;;;18.80;56.12;99513.44;5077373;28;20052;-67
2022/06/03 12:26:29;;;;;;;4.53;2.78;;;;;;;18.66;56.42;99525.41;5093642;28;20044;-68
2022/06/03 12:29:22;;;;;;;4.45;2.90;;;;;;;18.67;56.33;99521.38;5080376;28;20060;-72
2022/06/03 12:31:49;;;;;;;4.00;2.55;;;;;;;18.60;56.11;99528.94;5075589;28;20052;-71
2022/06/03 12:34:26;;;;;;;7.18;2.63;;;;;;;18.51;56.46;99540.53;5074590;28;20048;-67
2022/06/03 12:37:00;;;;;;;5.93;3.67;;;;;;;18.60;56.09;99535.41;5074927;28;20033;-71
2022/06/03 12:39:54;;;;;;;4.65;2.67;;;;;;;18.36;56.56;99533.06;5074568;28;20044;-69
2022/06/03 12:42:26;;;;;;;4.20;2.45;;;;;;;18.11;57.57;99546.84;5071883;28;20510;-67
2022/06/03 12:44:56;;;;;;;13.93;3.13;;;;;;;18.12;57.76;99547.66;5072563;28;20048;-66
2022/06/03 12:47:35;;;;;;;5.82;2.20;;;;;;;18.10;57.66;99561.31;5073338;28;20521;-68
2022/06/03 12:50:05;;;;;;;3.60;2.40;;;;;;;18.00;58.02;99556.34;5055600;28;20052;-68
2022/06/03 12:52:35;;;;;;;5.05;2.70;;;;;;;18.05;58.13;99562.44;5095344;28;20044;-68
2022/06/03 12:55:09;;;;;;;;;;;;;;;18.02;58.31;99560.41;5096151;28;20051;-68
2022/06/03 12:57:55;;;;;;;5.45;2.70;;;;;;;18.43;57.12;99564.16;5095534;28;19970;-70
2022/06/03 13:00:33;;;;;;;5.72;2.60;;;;;;;18.58;56.90;99563.13;5095238;28;20048;-67
2022/06/03 13:03:06;;;;;;;5.00;2.60;;;;;;;18.48;56.67;99569.47;5058063;28;20114;-68
2022/06/03 13:05:35;;;;;;;8.65;2.28;;;;;;;18.40;56.58;99570.56;5054735;28;20408;-68
2022/06/03 13:08:07;;;;;;;3.92;2.20;;;;;;;18.61;55.96;99573.63;5055271;28;20053;-71
2022/06/03 13:10:57;;;;;;;4.03;2.40;;;;;;;18.73;55.02;99575.38;5054751;28;20044;-67
2022/06/03 13:13:30;;;;;;;6.93;2.20;;;;;;;18.56;55.43;99571.16;5054919;28;20049;-67
2022/06/03 13:16:00;;;;;;;3.83;2.20;;;;;;;18.45;55.74;99567.41;5054909;28;20048;-67
2022/06/03 13:18:40;;;;;;;7.40;2.58;;;;;;;18.49;55.58;99565.44;5054814;28;20059;-67